sensor_id;sensor_type;location;lat;lon;timestamp;P1;durP1;ratioP1;P2;durP2;ratioP2
6344;SDS011;3205;42.666;23.264;2022-11-20T00:01:03;1.80;;;1.13;;
6344;SDS011;3205;42.666;23.264;2022-11-20T00:03:30;2.40;;;1.00;;
6344;SDS011;3205;42.666;23.264;2022-11-20T00:05:59;2.57;;;1.40;;
6344;SDS011;3205;42.666;23.264;2022-11-20T00:08:26;5.57;;;1.20;;
6344;SDS011;3205;42.666;23.264;2022-11-20T00:10:52;2.15;;;1.25;;
6344;SDS011;3205;42.666;23.264;2022-11-20T00:13:19;2.87;;;1.50;;
6344;SDS011;3205;42.666;23.264;2022-11-20T00:15:47;3.25;;;1.35;;
6344;SDS011;3205;42.666;23.264;2022-11-20T00:18:14;1.93;;;0.90;;
6344;SDS011;3205;42.666;23.264;2022-11-20T00:20:41;4.22;;;1.40;;
6344;SDS011;3205;42.666;23.264;2022-11-20T00:23:07;3.50;;;1.60;;
6344;SDS011;3205;42.666;23.264;2022-11-20T00:25:34;2.13;;;1.10;;
6344;SDS011;3205;42.666;23.264;2022-11-20T00:28:01;5.47;;;1.40;;
6344;SDS011;3205;42.666;23.264;2022-11-20T00:30:28;2.72;;;1.08;;
6344;SDS011;3205;42.666;23.264;2022-11-20T00:32:57;1.93;;;1.20;;
6344;SDS011;3205;42.666;23.264;2022-11-20T00:35:24;4.97;;;1.30;;
6344;SDS011;3205;42.666;23.264;2022-11-20T00:37:51;2.30;;;1.30;;
6344;SDS011;3205;42.666;23.264;2022-11-20T00:40:18;2.78;;;1.20;;
6344;SDS011;3205;42.666;23.264;2022-11-20T00:42:44;7.95;;;1.38;;
6344;SDS011;3205;42.666;23.264;2022-11-20T00:45:11;3.58;;;0.98;;
6344;SDS011;3205;42.666;23.264;2022-11-20T00:47:38;4.75;;;1.75;;
6344;SDS011;3205;42.666;23.264;2022-11-20T00:50:06;3.10;;;1.37;;
6344;SDS011;3205;42.666;23.264;2022-11-20T00:52:34;3.33;;;1.60;;
6344;SDS011;3205;42.666;23.264;2022-11-20T00:55:01;4.03;;;1.40;;
6344;SDS011;3205;42.666;23.264;2022-11-20T00:57:28;4.68;;;1.30;;
6344;SDS011;3205;42.666;23.264;2022-11-20T00:59:55;4.07;;;1.83;;
6344;SDS011;3205;42.666;23.264;2022-11-20T01:02:22;6.60;;;1.02;;
6344;SDS011;3205;42.666;23.264;2022-11-20T01:04:48;2.50;;;1.10;;
6344;SDS011;3205;42.666;23.264;2022-11-20T01:07:16;1.30;;;1.07;;
6344;SDS011;3205;42.666;23.264;2022-11-20T01:09:43;1.67;;;1.23;;
6344;SDS011;3205;42.666;23.264;2022-11-20T01:12:10;6.67;;;1.70;;
6344;SDS011;3205;42.666;23.264;2022-11-20T01:14:37;3.80;;;1.40;;
6344;SDS011;3205;42.666;23.264;2022-11-20T01:17:04;2.53;;;1.50;;
6344;SDS011;3205;42.666;23.264;2022-11-20T01:19:30;4.07;;;1.50;;
6344;SDS011;3205;42.666;23.264;2022-11-20T01:21:57;8.90;;;1.50;;
6344;SDS011;3205;42.666;23.264;2022-11-20T01:24:25;5.10;;;1.33;;
6344;SDS011;3205;42.666;23.264;2022-11-20T01:26:52;1.80;;;1.40;;
6344;SDS011;3205;42.666;23.264;2022-11-20T01:29:21;4.90;;;1.33;;
6344;SDS011;3205;42.666;23.264;2022-11-20T01:31:49;4.73;;;1.50;;
6344;SDS011;3205;42.666;23.264;2022-11-20T01:34:17;3.60;;;1.60;;
6344;SDS011;3205;42.666;23.264;2022-11-20T01:36:47;3.38;;;1.10;;
6344;SDS011;3205;42.666;23.264;2022-11-20T01:39:15;3.50;;;1.25;;
6344;SDS011;3205;42.666;23.264;2022-11-20T01:41:47;5.67;;;1.60;;
6344;SDS011;3205;42.666;23.264;2022-11-20T01:47:25;1.35;;;1.00;;
6344;SDS011;3205;42.666;23.264;2022-11-20T01:49:59;2.00;;;0.93;;
6344;SDS011;3205;42.666;23.264;2022-11-20T01:52:32;1.30;;;1.20;;
6344;SDS011;3205;42.666;23.264;2022-11-20T01:55:04;1.53;;;1.33;;
6344;SDS011;3205;42.666;23.264;2022-11-20T01:57:36;1.40;;;1.10;;
6344;SDS011;3205;42.666;23.264;2022-11-20T02:00:05;4.50;;;1.23;;
6344;SDS011;3205;42.666;23.264;2022-11-20T02:02:35;4.65;;;1.10;;
6344;SDS011;3205;42.666;23.264;2022-11-20T02:05:06;1.40;;;1.17;;
6344;SDS011;3205;42.666;23.264;2022-11-20T02:07:38;2.00;;;1.20;;
6344;SDS011;3205;42.666;23.264;2022-11-20T02:10:06;3.63;;;1.20;;
6344;SDS011;3205;42.666;23.264;2022-11-20T02:12:33;1.48;;;1.33;;
6344;SDS011;3205;42.666;23.264;2022-11-20T02:15:18;2.63;;;1.40;;
6344;SDS011;3205;42.666;23.264;2022-11-20T02:17:45;1.87;;;1.30;;
6344;SDS011;3205;42.666;23.264;2022-11-20T02:20:12;3.60;;;1.20;;
6344;SDS011;3205;42.666;23.264;2022-11-20T02:22:41;6.53;;;1.20;;
6344;SDS011;3205;42.666;23.264;2022-11-20T02:25:17;3.13;;;0.97;;
6344;SDS011;3205;42.666;23.264;2022-11-20T02:27:46;5.10;;;1.47;;
6344;SDS011;3205;42.666;23.264;2022-11-20T02:30:13;2.50;;;1.20;;
6344;SDS011;3205;42.666;23.264;2022-11-20T02:32:40;2.47;;;1.13;;
6344;SDS011;3205;42.666;23.264;2022-11-20T02:35:08;6.20;;;1.53;;
6344;SDS011;3205;42.666;23.264;2022-11-20T02:37:36;1.10;;;0.83;;
6344;SDS011;3205;42.666;23.264;2022-11-20T02:40:06;1.83;;;1.37;;
6344;SDS011;3205;42.666;23.264;2022-11-20T02:42:35;5.00;;;1.53;;
6344;SDS011;3205;42.666;23.264;2022-11-20T02:45:02;3.63;;;1.07;;
6344;SDS011;3205;42.666;23.264;2022-11-20T02:47:30;4.27;;;1.37;;
6344;SDS011;3205;42.666;23.264;2022-11-20T02:49:57;3.83;;;1.40;;
6344;SDS011;3205;42.666;23.264;2022-11-20T02:52:24;4.77;;;1.47;;
6344;SDS011;3205;42.666;23.264;2022-11-20T02:54:53;3.77;;;1.47;;
6344;SDS011;3205;42.666;23.264;2022-11-20T02:57:19;2.03;;;1.20;;
6344;SDS011;3205;42.666;23.264;2022-11-20T02:59:47;4.50;;;1.70;;
6344;SDS011;3205;42.666;23.264;2022-11-20T03:02:14;4.83;;;1.87;;
6344;SDS011;3205;42.666;23.264;2022-11-20T03:04:41;3.20;;;1.60;;
6344;SDS011;3205;42.666;23.264;2022-11-20T03:07:08;5.53;;;1.80;;
6344;SDS011;3205;42.666;23.264;2022-11-20T03:09:35;6.23;;;1.90;;
6344;SDS011;3205;42.666;23.264;2022-11-20T03:12:01;5.50;;;1.50;;
6344;SDS011;3205;42.666;23.264;2022-11-20T03:14:29;2.47;;;1.70;;
6344;SDS011;3205;42.666;23.264;2022-11-20T03:16:57;3.37;;;1.50;;
6344;SDS011;3205;42.666;23.264;2022-11-20T03:19:24;4.27;;;1.50;;
6344;SDS011;3205;42.666;23.264;2022-11-20T03:21:50;3.20;;;1.53;;
6344;SDS011;3205;42.666;23.264;2022-11-20T03:24:17;2.67;;;1.47;;
6344;SDS011;3205;42.666;23.264;2022-11-20T03:26:44;3.40;;;1.10;;
6344;SDS011;3205;42.666;23.264;2022-11-20T03:29:11;8.60;;;1.70;;
6344;SDS011;3205;42.666;23.264;2022-11-20T03:31:38;4.33;;;1.50;;
6344;SDS011;3205;42.666;23.264;2022-11-20T03:34:08;2.77;;;1.17;;
6344;SDS011;3205;42.666;23.264;2022-11-20T03:36:37;4.40;;;1.40;;
6344;SDS011;3205;42.666;23.264;2022-11-20T03:39:04;6.40;;;1.40;;
6344;SDS011;3205;42.666;23.264;2022-11-20T03:41:31;2.93;;;1.60;;
6344;SDS011;3205;42.666;23.264;2022-11-20T03:44:03;5.37;;;1.20;;
6344;SDS011;3205;42.666;23.264;2022-11-20T03:46:31;2.47;;;0.90;;
6344;SDS011;3205;42.666;23.264;2022-11-20T03:49:00;2.37;;;1.23;;
6344;SDS011;3205;42.666;23.264;2022-11-20T03:51:30;2.30;;;1.10;;
6344;SDS011;3205;42.666;23.264;2022-11-20T03:53:59;4.97;;;1.40;;
6344;SDS011;3205;42.666;23.264;2022-11-20T03:56:27;3.30;;;1.30;;
6344;SDS011;3205;42.666;23.264;2022-11-20T03:58:55;5.03;;;1.30;;
6344;SDS011;3205;42.666;23.264;2022-11-20T04:01:23;3.97;;;1.30;;
6344;SDS011;3205;42.666;23.264;2022-11-20T04:03:51;3.47;;;1.30;;
6344;SDS011;3205;42.666;23.264;2022-11-20T04:06:19;4.77;;;1.40;;
6344;SDS011;3205;42.666;23.264;2022-11-20T04:08:49;2.27;;;1.17;;
6344;SDS011;3205;42.666;23.264;2022-11-20T04:11:16;7.03;;;1.10;;
6344;SDS011;3205;42.666;23.264;2022-11-20T04:13:45;1.83;;;1.10;;
6344;SDS011;3205;42.666;23.264;2022-11-20T04:16:14;3.90;;;1.10;;
6344;SDS011;3205;42.666;23.264;2022-11-20T04:18:42;4.30;;;1.10;;
6344;SDS011;3205;42.666;23.264;2022-11-20T04:21:10;2.30;;;1.10;;
6344;SDS011;3205;42.666;23.264;2022-11-20T04:23:37;1.33;;;1.10;;
6344;SDS011;3205;42.666;23.264;2022-11-20T04:26:07;3.60;;;1.10;;
6344;SDS011;3205;42.666;23.264;2022-11-20T04:28:35;6.47;;;1.17;;
6344;SDS011;3205;42.666;23.264;2022-11-20T04:31:03;2.87;;;1.27;;
6344;SDS011;3205;42.666;23.264;2022-11-20T04:33:31;2.07;;;1.13;;
6344;SDS011;3205;42.666;23.264;2022-11-20T04:36:02;6.40;;;1.07;;
6344;SDS011;3205;42.666;23.264;2022-11-20T04:38:30;3.10;;;0.77;;
6344;SDS011;3205;42.666;23.264;2022-11-20T04:40:57;2.17;;;1.30;;
6344;SDS011;3205;42.666;23.264;2022-11-20T04:43:26;4.47;;;1.73;;
6344;SDS011;3205;42.666;23.264;2022-11-20T04:45:54;3.60;;;1.40;;
6344;SDS011;3205;42.666;23.264;2022-11-20T04:48:21;5.03;;;1.10;;
6344;SDS011;3205;42.666;23.264;2022-11-20T04:50:48;2.90;;;1.20;;
6344;SDS011;3205;42.666;23.264;2022-11-20T04:53:15;1.37;;;1.27;;
6344;SDS011;3205;42.666;23.264;2022-11-20T04:55:43;3.77;;;1.17;;
6344;SDS011;3205;42.666;23.264;2022-11-20T04:58:09;2.63;;;1.20;;
6344;SDS011;3205;42.666;23.264;2022-11-20T05:00:39;3.57;;;1.30;;
6344;SDS011;3205;42.666;23.264;2022-11-20T05:03:06;6.37;;;1.20;;
6344;SDS011;3205;42.666;23.264;2022-11-20T05:05:33;2.10;;;1.17;;
6344;SDS011;3205;42.666;23.264;2022-11-20T05:08:00;1.57;;;0.93;;
6344;SDS011;3205;42.666;23.264;2022-11-20T05:10:27;1.90;;;1.00;;
6344;SDS011;3205;42.666;23.264;2022-11-20T05:12:54;1.87;;;1.23;;
6344;SDS011;3205;42.666;23.264;2022-11-20T05:15:20;5.20;;;1.40;;
6344;SDS011;3205;42.666;23.264;2022-11-20T05:17:49;3.77;;;1.10;;
6344;SDS011;3205;42.666;23.264;2022-11-20T05:20:16;5.10;;;1.27;;
6344;SDS011;3205;42.666;23.264;2022-11-20T05:22:43;2.37;;;1.30;;
6344;SDS011;3205;42.666;23.264;2022-11-20T05:25:11;9.60;;;1.70;;
6344;SDS011;3205;42.666;23.264;2022-11-20T05:27:38;1.27;;;1.07;;
6344;SDS011;3205;42.666;23.264;2022-11-20T05:30:05;2.53;;;1.10;;
6344;SDS011;3205;42.666;23.264;2022-11-20T05:32:32;2.57;;;0.93;;
6344;SDS011;3205;42.666;23.264;2022-11-20T05:35:01;3.70;;;1.40;;
6344;SDS011;3205;42.666;23.264;2022-11-20T05:37:27;3.93;;;1.10;;
6344;SDS011;3205;42.666;23.264;2022-11-20T05:39:54;5.20;;;1.27;;
6344;SDS011;3205;42.666;23.264;2022-11-20T05:42:22;2.67;;;1.13;;
6344;SDS011;3205;42.666;23.264;2022-11-20T05:44:57;3.10;;;1.40;;
6344;SDS011;3205;42.666;23.264;2022-11-20T05:47:24;2.60;;;1.37;;
6344;SDS011;3205;42.666;23.264;2022-11-20T05:49:51;2.20;;;1.00;;
6344;SDS011;3205;42.666;23.264;2022-11-20T05:52:20;4.70;;;1.40;;
6344;SDS011;3205;42.666;23.264;2022-11-20T05:54:49;4.00;;;0.90;;
6344;SDS011;3205;42.666;23.264;2022-11-20T05:57:16;5.30;;;1.87;;
6344;SDS011;3205;42.666;23.264;2022-11-20T05:59:42;2.10;;;1.27;;
6344;SDS011;3205;42.666;23.264;2022-11-20T06:02:09;4.07;;;1.70;;
6344;SDS011;3205;42.666;23.264;2022-11-20T06:04:36;4.00;;;1.10;;
6344;SDS011;3205;42.666;23.264;2022-11-20T06:07:04;1.97;;;1.27;;
6344;SDS011;3205;42.666;23.264;2022-11-20T06:09:32;4.65;;;1.10;;
6344;SDS011;3205;42.666;23.264;2022-11-20T06:11:59;9.10;;;1.38;;
6344;SDS011;3205;42.666;23.264;2022-11-20T06:14:26;2.07;;;1.53;;
6344;SDS011;3205;42.666;23.264;2022-11-20T06:16:53;4.87;;;1.40;;
6344;SDS011;3205;42.666;23.264;2022-11-20T06:19:20;10.57;;;1.48;;
6344;SDS011;3205;42.666;23.264;2022-11-20T06:21:47;4.30;;;1.10;;
6344;SDS011;3205;42.666;23.264;2022-11-20T06:24:15;3.60;;;1.40;;
6344;SDS011;3205;42.666;23.264;2022-11-20T06:26:44;4.72;;;1.27;;
6344;SDS011;3205;42.666;23.264;2022-11-20T06:29:12;4.20;;;1.60;;
6344;SDS011;3205;42.666;23.264;2022-11-20T06:31:39;4.38;;;2.20;;
6344;SDS011;3205;42.666;23.264;2022-11-20T06:34:07;2.35;;;1.23;;
6344;SDS011;3205;42.666;23.264;2022-11-20T06:36:34;2.92;;;1.42;;
6344;SDS011;3205;42.666;23.264;2022-11-20T06:39:01;2.28;;;1.10;;
6344;SDS011;3205;42.666;23.264;2022-11-20T06:41:28;7.28;;;1.23;;
6344;SDS011;3205;42.666;23.264;2022-11-20T06:43:56;2.20;;;1.20;;
6344;SDS011;3205;42.666;23.264;2022-11-20T06:46:22;6.97;;;1.27;;
6344;SDS011;3205;42.666;23.264;2022-11-20T06:48:49;4.32;;;1.00;;
6344;SDS011;3205;42.666;23.264;2022-11-20T06:51:18;3.90;;;0.93;;
6344;SDS011;3205;42.666;23.264;2022-11-20T06:53:45;4.10;;;0.90;;
6344;SDS011;3205;42.666;23.264;2022-11-20T06:56:11;3.15;;;1.20;;
6344;SDS011;3205;42.666;23.264;2022-11-20T06:58:38;1.90;;;0.57;;
6344;SDS011;3205;42.666;23.264;2022-11-20T07:01:07;3.05;;;0.82;;
6344;SDS011;3205;42.666;23.264;2022-11-20T07:03:35;2.72;;;1.00;;
6344;SDS011;3205;42.666;23.264;2022-11-20T07:06:03;2.45;;;1.08;;
6344;SDS011;3205;42.666;23.264;2022-11-20T07:08:31;2.45;;;1.02;;
6344;SDS011;3205;42.666;23.264;2022-11-20T07:10:58;4.50;;;1.30;;
6344;SDS011;3205;42.666;23.264;2022-11-20T07:13:26;3.58;;;1.27;;
6344;SDS011;3205;42.666;23.264;2022-11-20T07:15:53;2.10;;;1.27;;
6344;SDS011;3205;42.666;23.264;2022-11-20T07:18:21;6.00;;;1.63;;
6344;SDS011;3205;42.666;23.264;2022-11-20T07:20:49;6.53;;;1.73;;
6344;SDS011;3205;42.666;23.264;2022-11-20T07:23:16;5.00;;;1.40;;
6344;SDS011;3205;42.666;23.264;2022-11-20T07:25:45;4.10;;;1.38;;
6344;SDS011;3205;42.666;23.264;2022-11-20T07:28:11;3.88;;;1.15;;
6344;SDS011;3205;42.666;23.264;2022-11-20T07:30:38;4.97;;;1.58;;
6344;SDS011;3205;42.666;23.264;2022-11-20T07:33:05;4.78;;;1.20;;
6344;SDS011;3205;42.666;23.264;2022-11-20T07:35:33;8.43;;;2.03;;
6344;SDS011;3205;42.666;23.264;2022-11-20T07:38:00;4.80;;;1.67;;
6344;SDS011;3205;42.666;23.264;2022-11-20T07:40:27;4.50;;;1.67;;
6344;SDS011;3205;42.666;23.264;2022-11-20T07:42:54;3.70;;;1.63;;
6344;SDS011;3205;42.666;23.264;2022-11-20T07:45:22;7.63;;;1.77;;
6344;SDS011;3205;42.666;23.264;2022-11-20T07:47:50;7.13;;;1.58;;
6344;SDS011;3205;42.666;23.264;2022-11-20T07:50:17;2.28;;;1.38;;
6344;SDS011;3205;42.666;23.264;2022-11-20T07:52:46;5.28;;;1.67;;
6344;SDS011;3205;42.666;23.264;2022-11-20T07:55:13;5.10;;;1.23;;
6344;SDS011;3205;42.666;23.264;2022-11-20T07:57:41;4.43;;;1.50;;
6344;SDS011;3205;42.666;23.264;2022-11-20T08:00:08;5.75;;;1.48;;
6344;SDS011;3205;42.666;23.264;2022-11-20T08:02:37;13.50;;;4.63;;
6344;SDS011;3205;42.666;23.264;2022-11-20T08:05:05;14.15;;;6.50;;
6344;SDS011;3205;42.666;23.264;2022-11-20T08:07:35;13.63;;;6.15;;
6344;SDS011;3205;42.666;23.264;2022-11-20T08:10:04;5.38;;;1.83;;
6344;SDS011;3205;42.666;23.264;2022-11-20T08:12:32;11.95;;;2.35;;
6344;SDS011;3205;42.666;23.264;2022-11-20T08:15:16;7.63;;;1.70;;
6344;SDS011;3205;42.666;23.264;2022-11-20T08:17:43;5.13;;;2.20;;
6344;SDS011;3205;42.666;23.264;2022-11-20T08:20:10;5.65;;;1.80;;
6344;SDS011;3205;42.666;23.264;2022-11-20T08:22:37;4.28;;;1.90;;
6344;SDS011;3205;42.666;23.264;2022-11-20T08:25:05;7.25;;;2.50;;
6344;SDS011;3205;42.666;23.264;2022-11-20T08:27:32;7.40;;;2.03;;
6344;SDS011;3205;42.666;23.264;2022-11-20T08:29:59;7.88;;;2.05;;
6344;SDS011;3205;42.666;23.264;2022-11-20T08:32:26;16.40;;;2.65;;
6344;SDS011;3205;42.666;23.264;2022-11-20T08:34:53;6.50;;;2.00;;
6344;SDS011;3205;42.666;23.264;2022-11-20T08:37:19;6.43;;;1.88;;
6344;SDS011;3205;42.666;23.264;2022-11-20T08:39:46;4.35;;;1.45;;
6344;SDS011;3205;42.666;23.264;2022-11-20T08:42:14;5.85;;;1.98;;
6344;SDS011;3205;42.666;23.264;2022-11-20T08:44:41;3.65;;;1.70;;
6344;SDS011;3205;42.666;23.264;2022-11-20T08:47:09;7.07;;;2.63;;
6344;SDS011;3205;42.666;23.264;2022-11-20T08:49:36;9.88;;;2.75;;
6344;SDS011;3205;42.666;23.264;2022-11-20T08:52:03;7.20;;;2.60;;
6344;SDS011;3205;42.666;23.264;2022-11-20T08:54:30;18.88;;;2.85;;
6344;SDS011;3205;42.666;23.264;2022-11-20T08:56:57;6.72;;;2.53;;
6344;SDS011;3205;42.666;23.264;2022-11-20T08:59:25;6.53;;;3.20;;
6344;SDS011;3205;42.666;23.264;2022-11-20T09:01:52;10.85;;;2.85;;
6344;SDS011;3205;42.666;23.264;2022-11-20T09:04:19;10.23;;;3.38;;
6344;SDS011;3205;42.666;23.264;2022-11-20T09:06:46;8.75;;;2.70;;
6344;SDS011;3205;42.666;23.264;2022-11-20T09:09:16;10.15;;;3.00;;
6344;SDS011;3205;42.666;23.264;2022-11-20T09:11:44;12.55;;;2.58;;
6344;SDS011;3205;42.666;23.264;2022-11-20T09:14:11;5.82;;;2.40;;
6344;SDS011;3205;42.666;23.264;2022-11-20T09:16:40;8.63;;;2.90;;
6344;SDS011;3205;42.666;23.264;2022-11-20T09:19:06;7.90;;;3.00;;
6344;SDS011;3205;42.666;23.264;2022-11-20T09:21:33;4.70;;;2.70;;
6344;SDS011;3205;42.666;23.264;2022-11-20T09:24:00;3.90;;;1.83;;
6344;SDS011;3205;42.666;23.264;2022-11-20T09:26:27;5.67;;;1.80;;
6344;SDS011;3205;42.666;23.264;2022-11-20T09:28:53;5.87;;;1.67;;
6344;SDS011;3205;42.666;23.264;2022-11-20T09:31:21;4.37;;;1.70;;
6344;SDS011;3205;42.666;23.264;2022-11-20T09:33:51;3.63;;;1.90;;
6344;SDS011;3205;42.666;23.264;2022-11-20T09:36:19;7.97;;;1.93;;
6344;SDS011;3205;42.666;23.264;2022-11-20T09:38:46;8.33;;;1.93;;
6344;SDS011;3205;42.666;23.264;2022-11-20T09:41:20;5.07;;;2.00;;
6344;SDS011;3205;42.666;23.264;2022-11-20T09:44:07;6.07;;;2.13;;
6344;SDS011;3205;42.666;23.264;2022-11-20T09:46:53;8.13;;;2.50;;
6344;SDS011;3205;42.666;23.264;2022-11-20T09:49:28;3.55;;;1.75;;
6344;SDS011;3205;42.666;23.264;2022-11-20T09:52:05;8.50;;;2.40;;
6344;SDS011;3205;42.666;23.264;2022-11-20T09:54:44;5.20;;;2.45;;
6344;SDS011;3205;42.666;23.264;2022-11-20T09:57:12;11.68;;;2.40;;
6344;SDS011;3205;42.666;23.264;2022-11-20T09:59:45;10.75;;;2.40;;
6344;SDS011;3205;42.666;23.264;2022-11-20T10:02:16;10.82;;;2.60;;
6344;SDS011;3205;42.666;23.264;2022-11-20T10:04:54;11.23;;;2.60;;
6344;SDS011;3205;42.666;23.264;2022-11-20T10:07:26;9.10;;;2.50;;
6344;SDS011;3205;42.666;23.264;2022-11-20T10:10:01;8.75;;;2.90;;
6344;SDS011;3205;42.666;23.264;2022-11-20T10:12:31;12.00;;;2.65;;
6344;SDS011;3205;42.666;23.264;2022-11-20T10:15:21;8.68;;;2.30;;
6344;SDS011;3205;42.666;23.264;2022-11-20T10:18:02;7.47;;;2.25;;
6344;SDS011;3205;42.666;23.264;2022-11-20T10:20:42;5.90;;;2.88;;
6344;SDS011;3205;42.666;23.264;2022-11-20T10:23:18;6.55;;;2.47;;
6344;SDS011;3205;42.666;23.264;2022-11-20T10:25:55;5.90;;;2.72;;
6344;SDS011;3205;42.666;23.264;2022-11-20T10:28:34;5.95;;;2.83;;
6344;SDS011;3205;42.666;23.264;2022-11-20T10:31:14;9.32;;;3.00;;
6344;SDS011;3205;42.666;23.264;2022-11-20T10:33:51;8.43;;;3.17;;
6344;SDS011;3205;42.666;23.264;2022-11-20T10:36:23;6.25;;;3.00;;
6344;SDS011;3205;42.666;23.264;2022-11-20T10:38:54;9.00;;;2.95;;
6344;SDS011;3205;42.666;23.264;2022-11-20T10:41:26;7.43;;;3.30;;
6344;SDS011;3205;42.666;23.264;2022-11-20T10:43:59;15.45;;;3.63;;
6344;SDS011;3205;42.666;23.264;2022-11-20T10:46:32;9.48;;;3.38;;
6344;SDS011;3205;42.666;23.264;2022-11-20T10:49:10;12.93;;;3.63;;
6344;SDS011;3205;42.666;23.264;2022-11-20T10:51:43;18.83;;;4.10;;
6344;SDS011;3205;42.666;23.264;2022-11-20T10:54:24;18.50;;;5.13;;
6344;SDS011;3205;42.666;23.264;2022-11-20T10:57:00;14.40;;;4.83;;
6344;SDS011;3205;42.666;23.264;2022-11-20T10:59:41;11.17;;;3.83;;
6344;SDS011;3205;42.666;23.264;2022-11-20T11:02:20;14.10;;;4.20;;
6344;SDS011;3205;42.666;23.264;2022-11-20T11:04:49;19.17;;;3.13;;
6344;SDS011;3205;42.666;23.264;2022-11-20T11:07:20;11.50;;;2.47;;
6344;SDS011;3205;42.666;23.264;2022-11-20T11:09:52;4.53;;;1.77;;
6344;SDS011;3205;42.666;23.264;2022-11-20T11:12:21;5.10;;;1.60;;
6344;SDS011;3205;42.666;23.264;2022-11-20T11:14:51;2.33;;;1.07;;
6344;SDS011;3205;42.666;23.264;2022-11-20T11:17:22;1.70;;;1.10;;
6344;SDS011;3205;42.666;23.264;2022-11-20T11:19:57;3.27;;;1.17;;
6344;SDS011;3205;42.666;23.264;2022-11-20T11:22:29;4.33;;;1.30;;
6344;SDS011;3205;42.666;23.264;2022-11-20T11:24:58;5.00;;;1.30;;
6344;SDS011;3205;42.666;23.264;2022-11-20T11:27:26;4.27;;;1.00;;
6344;SDS011;3205;42.666;23.264;2022-11-20T11:30:01;1.40;;;0.97;;
6344;SDS011;3205;42.666;23.264;2022-11-20T11:32:39;5.30;;;1.83;;
6344;SDS011;3205;42.666;23.264;2022-11-20T11:35:11;1.77;;;0.90;;
6344;SDS011;3205;42.666;23.264;2022-11-20T11:37:47;3.30;;;1.07;;
6344;SDS011;3205;42.666;23.264;2022-11-20T11:40:16;5.70;;;1.20;;
6344;SDS011;3205;42.666;23.264;2022-11-20T11:42:52;8.53;;;1.53;;
6344;SDS011;3205;42.666;23.264;2022-11-20T11:45:22;4.20;;;1.37;;
6344;SDS011;3205;42.666;23.264;2022-11-20T11:47:49;6.70;;;2.00;;
6344;SDS011;3205;42.666;23.264;2022-11-20T11:50:21;2.90;;;1.30;;
6344;SDS011;3205;42.666;23.264;2022-11-20T11:52:53;5.03;;;1.60;;
6344;SDS011;3205;42.666;23.264;2022-11-20T11:55:26;5.63;;;1.23;;
6344;SDS011;3205;42.666;23.264;2022-11-20T11:58:00;5.97;;;1.30;;
6344;SDS011;3205;42.666;23.264;2022-11-20T12:00:35;5.07;;;1.23;;
6344;SDS011;3205;42.666;23.264;2022-11-20T12:03:08;6.57;;;1.80;;
6344;SDS011;3205;42.666;23.264;2022-11-20T12:05:43;5.77;;;1.90;;
6344;SDS011;3205;42.666;23.264;2022-11-20T12:08:17;9.63;;;1.40;;
6344;SDS011;3205;42.666;23.264;2022-11-20T12:10:48;3.43;;;1.47;;
6344;SDS011;3205;42.666;23.264;2022-11-20T12:13:28;3.57;;;1.30;;
6344;SDS011;3205;42.666;23.264;2022-11-20T12:16:07;2.40;;;1.20;;
6344;SDS011;3205;42.666;23.264;2022-11-20T12:18:38;3.70;;;1.30;;
6344;SDS011;3205;42.666;23.264;2022-11-20T12:21:10;3.13;;;1.30;;
6344;SDS011;3205;42.666;23.264;2022-11-20T12:23:49;3.23;;;1.17;;
6344;SDS011;3205;42.666;23.264;2022-11-20T12:26:32;2.60;;;1.47;;
6344;SDS011;3205;42.666;23.264;2022-11-20T12:29:10;5.23;;;1.60;;
6344;SDS011;3205;42.666;23.264;2022-11-20T12:31:50;2.50;;;1.50;;
6344;SDS011;3205;42.666;23.264;2022-11-20T12:34:32;5.93;;;0.93;;
6344;SDS011;3205;42.666;23.264;2022-11-20T12:37:13;5.77;;;1.27;;
6344;SDS011;3205;42.666;23.264;2022-11-20T12:39:52;4.93;;;1.33;;
6344;SDS011;3205;42.666;23.264;2022-11-20T12:42:32;2.80;;;1.10;;
6344;SDS011;3205;42.666;23.264;2022-11-20T12:45:33;11.57;;;1.97;;
6344;SDS011;3205;42.666;23.264;2022-11-20T12:48:20;5.83;;;1.90;;
6344;SDS011;3205;42.666;23.264;2022-11-20T12:51:07;13.37;;;4.80;;
6344;SDS011;3205;42.666;23.264;2022-11-20T12:53:45;13.83;;;6.20;;
6344;SDS011;3205;42.666;23.264;2022-11-20T12:56:30;11.63;;;5.17;;
6344;SDS011;3205;42.666;23.264;2022-11-20T12:59:10;11.03;;;6.17;;
6344;SDS011;3205;42.666;23.264;2022-11-20T13:01:55;6.87;;;1.87;;
6344;SDS011;3205;42.666;23.264;2022-11-20T13:04:37;6.53;;;1.80;;
6344;SDS011;3205;42.666;23.264;2022-11-20T13:07:15;5.83;;;2.57;;
6344;SDS011;3205;42.666;23.264;2022-11-20T13:09:43;10.27;;;3.23;;
6344;SDS011;3205;42.666;23.264;2022-11-20T13:12:15;7.60;;;2.83;;
6344;SDS011;3205;42.666;23.264;2022-11-20T13:14:51;7.17;;;2.87;;
6344;SDS011;3205;42.666;23.264;2022-11-20T13:17:24;5.67;;;2.20;;
6344;SDS011;3205;42.666;23.264;2022-11-20T13:20:01;19.20;;;8.10;;
6344;SDS011;3205;42.666;23.264;2022-11-20T13:22:29;18.10;;;9.83;;
6344;SDS011;3205;42.666;23.264;2022-11-20T13:25:10;16.17;;;8.53;;
6344;SDS011;3205;42.666;23.264;2022-11-20T13:27:49;15.57;;;8.50;;
6344;SDS011;3205;42.666;23.264;2022-11-20T13:30:17;15.33;;;8.07;;
6344;SDS011;3205;42.666;23.264;2022-11-20T13:32:48;19.83;;;12.37;;
6344;SDS011;3205;42.666;23.264;2022-11-20T13:35:24;20.53;;;12.37;;
6344;SDS011;3205;42.666;23.264;2022-11-20T13:37:59;18.00;;;9.27;;
6344;SDS011;3205;42.666;23.264;2022-11-20T13:40:28;13.73;;;8.10;;
6344;SDS011;3205;42.666;23.264;2022-11-20T13:43:02;18.10;;;8.30;;
6344;SDS011;3205;42.666;23.264;2022-11-20T13:45:37;12.27;;;7.70;;
6344;SDS011;3205;42.666;23.264;2022-11-20T13:48:04;14.23;;;8.43;;
6344;SDS011;3205;42.666;23.264;2022-11-20T13:50:54;10.33;;;6.47;;
6344;SDS011;3205;42.666;23.264;2022-11-20T13:53:33;10.83;;;6.50;;
6344;SDS011;3205;42.666;23.264;2022-11-20T13:56:18;16.47;;;8.20;;
6344;SDS011;3205;42.666;23.264;2022-11-20T13:58:55;11.90;;;7.13;;
6344;SDS011;3205;42.666;23.264;2022-11-20T14:01:29;8.27;;;3.27;;
6344;SDS011;3205;42.666;23.264;2022-11-20T14:03:57;6.40;;;3.73;;
6344;SDS011;3205;42.666;23.264;2022-11-20T14:06:26;9.93;;;4.77;;
6344;SDS011;3205;42.666;23.264;2022-11-20T14:08:55;13.83;;;5.77;;
6344;SDS011;3205;42.666;23.264;2022-11-20T14:11:22;18.50;;;9.57;;
6344;SDS011;3205;42.666;23.264;2022-11-20T14:13:56;11.93;;;8.43;;
6344;SDS011;3205;42.666;23.264;2022-11-20T14:16:27;19.33;;;8.87;;
6344;SDS011;3205;42.666;23.264;2022-11-20T14:18:55;5.00;;;2.53;;
6344;SDS011;3205;42.666;23.264;2022-11-20T14:21:24;4.83;;;3.30;;
6344;SDS011;3205;42.666;23.264;2022-11-20T14:23:52;5.17;;;3.00;;
6344;SDS011;3205;42.666;23.264;2022-11-20T14:26:21;8.97;;;3.53;;
6344;SDS011;3205;42.666;23.264;2022-11-20T14:28:48;5.53;;;3.00;;
6344;SDS011;3205;42.666;23.264;2022-11-20T14:31:22;8.83;;;3.67;;
6344;SDS011;3205;42.666;23.264;2022-11-20T14:33:51;6.83;;;3.53;;
6344;SDS011;3205;42.666;23.264;2022-11-20T14:36:20;11.70;;;4.53;;
6344;SDS011;3205;42.666;23.264;2022-11-20T14:38:49;9.07;;;3.60;;
6344;SDS011;3205;42.666;23.264;2022-11-20T14:41:18;10.77;;;5.53;;
6344;SDS011;3205;42.666;23.264;2022-11-20T14:43:46;11.30;;;4.80;;
6344;SDS011;3205;42.666;23.264;2022-11-20T14:46:16;6.37;;;2.80;;
6344;SDS011;3205;42.666;23.264;2022-11-20T14:48:47;4.00;;;3.20;;
6344;SDS011;3205;42.666;23.264;2022-11-20T14:51:26;2.63;;;1.70;;
6344;SDS011;3205;42.666;23.264;2022-11-20T14:53:55;5.00;;;1.87;;
6344;SDS011;3205;42.666;23.264;2022-11-20T14:56:22;4.20;;;2.23;;
6344;SDS011;3205;42.666;23.264;2022-11-20T14:58:56;4.33;;;2.27;;
6344;SDS011;3205;42.666;23.264;2022-11-20T15:01:27;3.27;;;1.93;;
6344;SDS011;3205;42.666;23.264;2022-11-20T15:04:04;4.03;;;2.43;;
6344;SDS011;3205;42.666;23.264;2022-11-20T15:06:35;3.43;;;2.53;;
6344;SDS011;3205;42.666;23.264;2022-11-20T15:09:02;3.40;;;2.10;;
6344;SDS011;3205;42.666;23.264;2022-11-20T15:11:30;5.80;;;2.33;;
6344;SDS011;3205;42.666;23.264;2022-11-20T15:14:01;3.27;;;2.30;;
6344;SDS011;3205;42.666;23.264;2022-11-20T15:16:30;2.40;;;1.90;;
6344;SDS011;3205;42.666;23.264;2022-11-20T15:18:57;7.53;;;2.40;;
6344;SDS011;3205;42.666;23.264;2022-11-20T15:21:26;5.33;;;3.10;;